Lincoln, Nebraska
Current Conditions -  °F | °C
As of 6:54 PM on Sunday 23 Nov 2014 (Local Time) from KLNK Reporting Station
Clear Clear  
Wind Chill: 36°   Ceiling: Unl
Heat Index: 43°   Visibility: 10mi
Dew Point: 29°   Wind: 13mph
Humidity: 58%   Direction: 330°NNW
Pressure: 29.59"   Gusts: NA
Location:  40.81°N, 96.71°W
Report Text: KLNK 240054Z 33011KT 10SM CLR 06/M02 A2959 RMK AO2 SLP020 T00611017
Loading
Personal Weather Stations






























Interactive Weather Map New forecast layout! Learn more

10-Day Weather Forecast

Advertisements
Track Severe Weather on mobile